Time;durP1;ratioP1;P1;durP2;ratioP2;P2;SDS_P1;SDS_P2;PMS_P1;PMS_P2;Temp;Humidity;BMP_temperature;BMP_pressure;BME280_temperature;BME280_humidity;BME280_pressure;Samples;Min_cycle;Max_cycle;Signal;HPM_P1;HPM_P2
2022/12/22 03:25:52;;;;;;;102.65;51.10;;;;;;;2.13;100.00;100545.63;5073623;28;20081;-71
2022/12/22 03:28:22;;;;;;;98.53;51.03;;;;;;;2.16;100.00;100545.47;5073698;28;20035;-71
2022/12/22 03:30:59;;;;;;;103.43;52.25;;;;;;;2.23;100.00;100560.09;5073639;28;20032;-70
2022/12/22 03:33:25;;;;;;;107.28;53.33;;;;;;;2.37;99.78;100564.72;5073786;28;20047;-71
2022/12/22 03:35:51;;;;;;;110.88;52.72;;;;;;;2.34;98.72;100549.00;5073626;28;20031;-71
2022/12/22 03:38:16;;;;;;;98.97;50.20;;;;;;;2.29;99.22;100551.88;5073633;28;20091;-71
2022/12/22 03:40:42;;;;;;;103.35;51.20;;;;;;;2.26;99.92;100554.66;5072050;28;20047;-70
2022/12/22 03:48:39;;;;;;;106.80;53.40;;;;;;;1.93;100.00;100503.47;5073099;28;20044;-71
2022/12/22 03:51:04;;;;;;;112.70;53.97;;;;;;;2.16;100.00;100545.47;5071687;28;20445;-71
2022/12/22 03:53:30;;;;;;;111.60;53.80;;;;;;;2.14;100.00;100554.44;5072633;28;20465;-74
2022/12/22 03:55:55;;;;;;;117.85;55.22;;;;;;;2.19;100.00;100561.19;5074595;28;20029;-74
2022/12/22 03:58:21;;;;;;;116.68;56.55;;;;;;;2.10;100.00;100550.25;5074444;28;20032;-74
2022/12/22 04:00:46;;;;;;;113.65;55.60;;;;;;;2.22;100.00;100561.06;5074417;28;20474;-73
2022/12/22 04:03:12;;;;;;;103.32;53.40;;;;;;;2.31;100.00;100565.03;5074286;28;20059;-73
2022/12/22 04:05:38;;;;;;;105.80;55.08;;;;;;;2.24;99.05;100535.38;5074558;28;20174;-73
2022/12/22 04:08:04;;;;;;;104.72;51.35;;;;;;;2.42;99.08;100571.50;5074085;28;20108;-73
2022/12/22 04:13:13;;;;;;;106.55;52.92;;;;;;;2.36;99.30;100552.44;5072173;28;20047;-73
2022/12/22 04:15:39;;;;;;;109.00;52.67;;;;;;;2.42;99.45;100573.28;5072349;28;20028;-72
2022/12/22 04:18:04;;;;;;;116.45;54.83;;;;;;;2.22;99.43;100539.88;5071575;28;20024;-73
2022/12/22 04:20:30;;;;;;;107.22;51.17;;;;;;;2.27;100.00;100559.06;5072280;28;20037;-74
2022/12/22 04:22:55;;;;;;;105.50;51.65;;;;;;;2.18;100.00;100538.34;5072074;28;20028;-73
2022/12/22 04:25:22;;;;;;;102.00;52.00;;;;;;;2.31;100.00;100576.47;5063527;28;20029;-73
2022/12/22 04:27:47;;;;;;;113.07;55.15;;;;;;;2.17;100.00;100541.88;5072125;28;20024;-73
2022/12/22 04:30:14;;;;;;;115.03;54.08;;;;;;;2.44;100.00;100571.41;5072544;28;20039;-73
2022/12/22 04:32:39;;;;;;;110.55;54.05;;;;;;;2.23;99.62;100532.81;5072465;28;20473;-73
2022/12/22 04:35:06;;;;;;;108.45;54.30;;;;;;;2.46;99.73;100572.19;5070583;28;20085;-73
2022/12/22 04:37:32;;;;;;;112.35;53.95;;;;;;;2.35;100.00;100561.28;5071520;28;20032;-74
2022/12/22 04:39:57;;;;;;;104.32;53.47;;;;;;;2.31;100.00;100550.00;5071881;28;20063;-72
2022/12/22 04:42:23;;;;;;;99.15;50.05;;;;;;;2.31;100.00;100539.44;5071897;28;20044;-73
2022/12/22 04:44:49;;;;;;;111.80;52.58;;;;;;;2.32;100.00;100535.84;5071175;28;20044;-70
2022/12/22 04:47:15;;;;;;;110.45;54.47;;;;;;;2.35;100.00;100548.91;5069806;28;20036;-71
2022/12/22 04:49:40;;;;;;;109.65;54.50;;;;;;;2.45;100.00;100543.16;5071544;28;20029;-70
2022/12/22 04:52:06;;;;;;;109.78;51.22;;;;;;;2.28;100.00;100514.91;5071481;28;20036;-71
2022/12/22 04:54:31;;;;;;;105.32;51.72;;;;;;;2.35;100.00;100538.34;5069383;28;20028;-72
2022/12/22 04:56:57;;;;;;;111.15;52.83;;;;;;;2.10;100.00;100497.34;5070485;28;20544;-71
2022/12/22 04:59:22;;;;;;;106.55;52.83;;;;;;;2.30;100.00;100537.69;5071854;28;20480;-74
2022/12/22 05:01:48;;;;;;;118.25;55.53;;;;;;;2.29;100.00;100525.41;5070721;28;20017;-74
2022/12/22 05:04:13;;;;;;;109.25;52.35;;;;;;;2.31;100.00;100527.97;5071052;28;20370;-70
2022/12/22 05:06:39;;;;;;;109.28;53.55;;;;;;;2.29;100.00;100535.16;5070816;28;20024;-70
2022/12/22 05:09:04;;;;;;;108.50;51.53;;;;;;;1.95;100.00;100491.03;5070403;28;20028;-71
2022/12/22 05:11:30;;;;;;;111.35;53.97;;;;;;;2.18;100.00;100522.47;5070030;28;20027;-71
2022/12/22 05:13:55;;;;;;;115.25;55.80;;;;;;;2.33;100.00;100539.34;5070610;28;20029;-72
2022/12/22 05:16:21;;;;;;;114.80;53.63;;;;;;;2.15;100.00;100506.75;5070512;28;20024;-72
2022/12/22 05:18:46;;;;;;;108.35;51.45;;;;;;;2.17;100.00;100519.88;5070296;28;20028;-71
2022/12/22 05:21:17;;;;;;;106.82;53.65;;;;;;;2.28;100.00;100544.88;5068738;28;20025;-71
2022/12/22 05:23:43;;;;;;;123.20;54.53;;;;;;;2.08;100.00;100518.56;5068951;28;20052;-70
2022/12/22 05:26:10;;;;;;;106.82;52.75;;;;;;;2.04;100.00;100521.44;5069115;28;20063;-70
2022/12/22 05:28:35;;;;;;;107.55;51.97;;;;;;;2.16;100.00;100561.34;5067348;28;20549;-70
2022/12/22 05:31:09;;;;;;;108.80;53.70;;;;;;;2.16;100.00;100561.34;5069967;28;20107;-71
2022/12/22 05:33:34;;;;;;;106.47;52.47;;;;;;;2.06;100.00;100540.72;5069943;28;20047;-72
2022/12/22 05:36:01;;;;;;;114.38;55.38;;;;;;;2.12;100.00;100553.66;5069640;28;20045;-71
2022/12/22 05:38:26;;;;;;;112.05;54.08;;;;;;;2.22;100.00;100571.63;5069312;28;20036;-70
2022/12/22 05:40:52;;;;;;;116.05;55.13;;;;;;;2.18;100.00;100551.56;5068954;28;20020;-71
2022/12/22 05:43:17;;;;;;;110.93;52.30;;;;;;;2.03;100.00;100539.09;5070274;28;20032;-71
2022/12/22 05:45:44;;;;;;;112.25;56.58;;;;;;;2.20;100.00;100552.31;5069638;28;20097;-70
2022/12/22 05:48:10;;;;;;;120.65;55.10;;;;;;;2.18;100.00;100556.84;5066913;28;20028;-71
2022/12/22 05:50:35;;;;;;;103.95;51.60;;;;;;;1.94;100.00;100513.09;5069275;28;20028;-71
2022/12/22 05:53:00;;;;;;;109.00;53.63;;;;;;;2.10;100.00;100534.38;5069421;28;20071;-71
2022/12/22 05:55:26;;;;;;;102.95;52.00;;;;;;;2.14;100.00;100549.16;5068533;28;20032;-72
2022/12/22 05:57:51;;;;;;;103.32;51.88;;;;;;;2.11;100.00;100533.41;5069440;28;20039;-71
2022/12/22 06:00:17;;;;;;;113.88;53.60;;;;;;;2.02;100.00;100532.09;5069858;28;20024;-71
2022/12/22 06:02:43;;;;;;;122.13;57.17;;;;;;;2.20;100.00;100560.25;5069650;28;20020;-71
2022/12/22 06:05:10;;;;;;;114.53;55.65;;;;;;;2.17;100.00;100565.69;5069563;28;20032;-71
2022/12/22 06:07:36;;;;;;;118.63;56.58;;;;;;;2.11;100.00;100547.50;5069654;28;20028;-70
2022/12/22 06:10:03;;;;;;;119.72;54.63;;;;;;;1.88;100.00;100516.06;5069526;28;20021;-71
2022/12/22 06:12:29;;;;;;;117.38;53.55;;;;;;;1.99;100.00;100536.66;5069520;28;20023;-70
2022/12/22 06:14:54;;;;;;;124.25;56.75;;;;;;;1.98;100.00;100533.19;5069766;28;20021;-71
2022/12/22 06:17:19;;;;;;;109.25;53.97;;;;;;;2.03;100.00;100541.72;5069423;28;20031;-71
2022/12/22 06:19:45;;;;;;;128.40;58.20;;;;;;;2.14;100.00;100549.16;5069564;28;20020;-70
2022/12/22 06:22:10;;;;;;;129.93;56.25;;;;;;;2.09;100.00;100549.38;5068320;28;20028;-71
2022/12/22 06:24:36;;;;;;;118.82;54.40;;;;;;;1.92;100.00;100524.69;5069613;28;20462;-71
2022/12/22 06:27:01;;;;;;;129.18;60.38;;;;;;;2.08;100.00;100546.78;5062782;28;20034;-72
2022/12/22 06:29:27;;;;;;;109.20;54.15;;;;;;;2.10;100.00;100551.06;5056918;28;20112;-73
2022/12/22 06:31:52;;;;;;;121.28;55.47;;;;;;;2.08;100.00;100549.44;5050984;28;20025;-73
2022/12/22 06:34:18;;;;;;;124.63;56.75;;;;;;;2.09;100.00;100545.84;5061544;28;20128;-74
2022/12/22 06:36:45;;;;;;;125.30;56.92;;;;;;;2.10;100.00;100556.34;5068648;28;20028;-74
2022/12/22 06:39:11;;;;;;;124.32;56.28;;;;;;;2.09;100.00;100552.00;5070369;28;20028;-74
2022/12/22 06:44:20;;;;;;;123.30;56.67;;;;;;;2.04;100.00;100547.88;5071146;28;20064;-74
2022/12/22 06:46:46;;;;;;;123.07;54.90;;;;;;;2.00;100.00;100541.06;5071602;28;20021;-73
2022/12/22 06:49:11;;;;;;;134.65;58.17;;;;;;;2.10;100.00;100553.72;5071767;28;20032;-74
2022/12/22 06:51:36;;;;;;;121.75;55.17;;;;;;;2.08;100.00;100550.31;5072977;28;20032;-75
2022/12/22 06:54:02;;;;;;;125.95;56.35;;;;;;;2.07;100.00;100550.38;5075533;28;20081;-75
2022/12/22 06:56:27;;;;;;;127.60;56.50;;;;;;;2.21;100.00;100561.13;5075688;28;20086;-74
2022/12/22 06:58:53;;;;;;;130.27;58.08;;;;;;;2.19;100.00;100561.19;5075670;28;20419;-74
2022/12/22 07:01:19;;;;;;;122.07;54.10;;;;;;;2.18;100.00;100561.28;5075429;28;20020;-73
2022/12/22 07:03:44;;;;;;;129.35;57.25;;;;;;;2.20;100.00;100559.44;5074809;28;20029;-72
2022/12/22 07:06:10;;;;;;;132.70;57.00;;;;;;;2.12;100.00;100557.16;5073633;28;20029;-70
2022/12/22 07:08:36;;;;;;;125.47;53.10;;;;;;;2.17;100.00;100562.22;5072596;28;20135;-71
2022/12/22 07:11:01;;;;;;;127.45;56.08;;;;;;;2.07;100.00;100561.81;5073530;28;20503;-70
2022/12/22 07:13:33;;;;;;;126.05;57.58;;;;;;;2.20;100.00;100572.66;5073339;28;20032;-71
2022/12/22 07:16:00;;;;;;;128.82;54.10;;;;;;;2.17;100.00;100576.28;5072569;28;20527;-71
2022/12/22 07:18:26;;;;;;;119.50;55.28;;;;;;;2.08;100.00;100544.16;5074053;28;20035;-70
2022/12/22 07:20:51;;;;;;;128.45;57.63;;;;;;;2.10;100.00;100545.78;5074058;28;20033;-72
2022/12/22 07:23:16;;;;;;;122.18;55.88;;;;;;;2.02;100.00;100536.53;5075270;28;20211;-72
2022/12/22 07:25:42;;;;;;;133.32;58.65;;;;;;;2.22;100.00;100573.41;5075022;28;20122;-73
2022/12/22 07:28:07;;;;;;;132.57;58.13;;;;;;;2.17;100.00;100555.13;5075047;28;20477;-74
2022/12/22 07:30:35;;;;;;;137.38;60.88;;;;;;;2.27;100.00;100564.34;5075401;28;20016;-73
2022/12/22 07:33:02;;;;;;;146.07;60.03;;;;;;;2.22;100.00;100561.06;5073845;28;20024;-73
2022/12/22 07:35:28;;;;;;;134.38;61.22;;;;;;;2.29;100.00;100574.84;5075483;28;20444;-72
2022/12/22 07:37:53;;;;;;;137.45;59.58;;;;;;;2.19;100.00;100558.56;5074750;28;20043;-73
2022/12/22 07:40:19;;;;;;;124.40;57.03;;;;;;;2.26;100.00;100561.78;5074349;28;20024;-73
2022/12/22 07:42:44;;;;;;;125.20;59.05;;;;;;;2.32;100.00;100564.94;5061835;28;20044;-72
2022/12/22 07:45:11;;;;;;;128.38;58.25;;;;;;;2.28;100.00;100544.00;5074586;28;20047;-72
2022/12/22 07:47:37;;;;;;;114.10;53.60;;;;;;;2.39;100.00;100561.06;5073291;28;20023;-72
2022/12/22 07:52:49;;;;;;;123.40;57.97;;;;;;;2.46;100.00;100573.97;5071905;28;20135;-72
2022/12/22 07:55:14;;;;;;;135.18;60.90;;;;;;;2.50;100.00;100568.47;5074722;28;20451;-73
2022/12/22 07:57:40;;;;;;;139.25;63.13;;;;;;;2.50;100.00;100571.09;5074415;28;20027;-74
2022/12/22 08:00:06;;;;;;;151.77;66.30;;;;;;;2.48;100.00;100562.38;5074321;28;20393;-74
2022/12/22 08:02:32;;;;;;;133.27;62.75;;;;;;;2.59;100.00;100565.34;5073802;28;20040;-73
2022/12/22 08:04:57;;;;;;;126.47;62.65;;;;;;;2.71;100.00;100566.50;5074185;28;20020;-73
2022/12/22 08:07:23;;;;;;;142.40;62.15;;;;;;;2.71;100.00;100558.56;5074372;28;20030;-74
2022/12/22 08:09:48;;;;;;;131.10;59.92;;;;;;;2.71;100.00;100550.63;5072717;28;20445;-72
2022/12/22 08:12:14;;;;;;;139.32;62.35;;;;;;;2.71;100.00;100553.25;5072391;28;20031;-74
2022/12/22 08:14:39;;;;;;;123.22;58.92;;;;;;;2.77;100.00;100552.94;5073687;28;20024;-74
2022/12/22 08:17:05;;;;;;;131.55;61.10;;;;;;;2.81;100.00;100565.94;5072764;28;20023;-73
2022/12/22 08:19:31;;;;;;;132.02;59.00;;;;;;;2.82;100.00;100574.72;5075649;28;20104;-73
2022/12/22 08:21:57;;;;;;;130.82;61.28;;;;;;;2.90;100.00;100593.75;5072944;28;20032;-73
2022/12/22 08:24:22;;;;;;;123.30;58.58;;;;;;;2.88;100.00;100579.72;5073792;28;20028;-73
2022/12/22 08:26:52;;;;;;;132.60;58.90;;;;;;;2.97;100.00;100584.53;5073658;28;20158;-72
2022/12/22 08:29:41;;;;;;;138.73;58.70;;;;;;;3.01;100.00;100573.69;5073999;28;20035;-72
2022/12/22 08:32:06;;;;;;;131.20;59.03;;;;;;;3.19;100.00;100587.78;5071046;28;20353;-70
2022/12/22 08:34:32;;;;;;;125.55;59.50;;;;;;;3.33;100.00;100609.94;5070186;28;20032;-72
2022/12/22 08:37:00;;;;;;;129.02;58.38;;;;;;;3.24;100.00;100601.59;5065383;28;20048;-72
2022/12/22 08:39:30;;;;;;;126.78;58.50;;;;;;;3.31;100.00;100595.03;5070472;28;20040;-70
2022/12/22 08:41:57;;;;;;;125.07;59.75;;;;;;;3.37;100.00;100594.72;5069198;28;20420;-72
2022/12/22 08:44:23;;;;;;;128.75;59.33;;;;;;;3.49;100.00;100586.09;5071159;28;20098;-72
2022/12/22 08:46:50;;;;;;;135.63;64.03;;;;;;;3.45;100.00;100592.53;5071228;28;20024;-71
2022/12/22 08:49:15;;;;;;;128.32;59.90;;;;;;;3.31;100.00;100577.34;5070456;28;20016;-71
2022/12/22 08:51:41;;;;;;;126.50;60.75;;;;;;;3.44;100.00;100569.56;5071642;28;20417;-71
2022/12/22 08:54:07;;;;;;;125.13;58.60;;;;;;;3.44;100.00;100569.56;5071113;28;20033;-71
2022/12/22 08:56:33;;;;;;;121.85;57.25;;;;;;;3.34;100.00;100565.72;5071709;28;20043;-72
2022/12/22 08:59:03;;;;;;;127.95;61.10;;;;;;;3.15;100.00;100535.84;5071901;28;20029;-71
2022/12/22 09:01:29;;;;;;;132.60;59.75;;;;;;;3.16;100.00;100546.38;5071734;28;20025;-71
2022/12/22 09:03:55;;;;;;;131.65;60.42;;;;;;;3.23;100.00;100553.06;5070264;28;20029;-72
2022/12/22 09:06:23;;;;;;;128.35;61.20;;;;;;;3.23;100.00;100552.22;5071664;28;20255;-71
2022/12/22 09:08:53;;;;;;;124.70;58.13;;;;;;;3.19;100.00;100534.78;5071452;28;20640;-70
2022/12/22 09:11:18;;;;;;;123.57;57.50;;;;;;;3.37;100.00;100558.47;5071480;28;20643;-72
2022/12/22 09:13:43;;;;;;;131.07;61.70;;;;;;;3.61;100.00;100574.84;5070023;28;20032;-70
2022/12/22 09:16:09;;;;;;;130.88;58.17;;;;;;;3.48;100.00;100547.28;5071617;28;20099;-72
2022/12/22 09:18:35;;;;;;;126.60;58.35;;;;;;;3.48;100.00;100528.72;5071427;28;20481;-71
2022/12/22 09:21:00;;;;;;;116.68;58.95;;;;;;;3.88;99.51;100570.63;5070165;28;20028;-72
2022/12/22 09:23:28;;;;;;;122.68;57.88;;;;;;;3.84;98.60;100555.84;5071310;28;20111;-72
2022/12/22 09:25:54;;;;;;;124.88;59.67;;;;;;;4.02;99.30;100584.81;5071211;28;20040;-72
2022/12/22 09:28:19;;;;;;;115.82;57.55;;;;;;;3.83;99.11;100539.06;5069923;28;20032;-72
2022/12/22 09:30:52;;;;;;;127.47;59.45;;;;;;;4.06;98.14;100559.81;5069127;28;20042;-72
2022/12/22 09:33:17;;;;;;;125.70;61.67;;;;;;;3.91;97.87;100546.59;5069889;28;20476;-71
2022/12/22 09:35:43;;;;;;;124.65;59.90;;;;;;;4.00;98.44;100556.69;5071113;28;20102;-72
2022/12/22 09:38:09;;;;;;;128.35;62.17;;;;;;;4.03;98.54;100564.47;5071191;28;20071;-72
2022/12/22 09:40:34;;;;;;;124.05;60.13;;;;;;;4.03;98.44;100557.34;5070989;28;20404;-71
2022/12/22 09:43:01;;;;;;;129.65;63.05;;;;;;;3.87;98.13;100537.94;5070898;28;20417;-71
2022/12/22 09:45:28;;;;;;;118.70;59.22;;;;;;;3.91;97.83;100538.63;5070947;28;20424;-72
2022/12/22 09:47:54;;;;;;;130.73;61.45;;;;;;;3.96;97.88;100544.50;5066909;28;20086;-72
2022/12/22 09:50:22;;;;;;;127.78;61.35;;;;;;;4.21;95.89;100561.59;5070451;28;20047;-72
2022/12/22 09:52:56;;;;;;;121.32;60.80;;;;;;;4.18;95.59;100540.53;5070540;28;20024;-71
2022/12/22 09:55:24;;;;;;;120.95;59.85;;;;;;;4.31;96.09;100554.81;5070673;28;20028;-72
2022/12/22 09:57:50;;;;;;;116.28;57.72;;;;;;;4.22;95.34;100527.91;5070630;28;20645;-71
2022/12/22 10:00:18;;;;;;;118.60;57.88;;;;;;;4.34;95.27;100540.47;5070564;28;20095;-71
2022/12/22 10:03:11;;;;;;;114.70;57.15;;;;;;;4.46;92.62;100535.28;5069641;28;20048;-72
2022/12/22 10:05:52;;;;;;;132.52;68.72;;;;;;;4.39;92.89;100517.19;5069088;28;20036;-73
2022/12/22 10:08:32;;;;;;;122.60;59.58;;;;;;;4.39;93.41;100517.19;5069397;28;20029;-72
2022/12/22 10:10:57;;;;;;;118.78;57.00;;;;;;;4.51;93.35;100525.25;5069013;28;20475;-72
2022/12/22 10:13:23;;;;;;;125.53;60.22;;;;;;;4.41;93.58;100523.25;5068375;28;20029;-72
2022/12/22 10:15:50;;;;;;;126.97;61.50;;;;;;;4.34;94.03;100506.84;5069908;28;20021;-71
2022/12/22 10:18:16;;;;;;;113.50;57.53;;;;;;;4.49;94.30;100523.66;5069857;28;20056;-72
2022/12/22 10:20:45;;;;;;;112.03;55.25;;;;;;;4.53;94.72;100504.78;5070087;28;20477;-72
2022/12/22 10:23:19;;;;;;;116.38;54.80;;;;;;;4.57;94.65;100498.34;5070120;28;20035;-72
2022/12/22 10:25:53;;;;;;;116.97;59.17;;;;;;;4.62;94.11;100498.91;5069830;28;20653;-72
2022/12/22 10:28:28;;;;;;;123.03;57.03;;;;;;;4.65;93.29;100500.53;5068851;28;20032;-73
2022/12/22 10:31:12;;;;;;;116.65;56.05;;;;;;;4.77;92.18;100497.13;5070037;28;20024;-72
2022/12/22 10:33:38;;;;;;;108.00;54.10;;;;;;;4.75;91.98;100480.44;5068909;28;20665;-72
2022/12/22 10:36:05;;;;;;;113.25;54.13;;;;;;;4.76;91.46;100466.19;5070356;28;20257;-73
2022/12/22 10:38:36;;;;;;;107.68;53.90;;;;;;;4.81;91.74;100458.81;5070147;28;20028;-72
2022/12/22 10:41:14;;;;;;;108.90;54.97;;;;;;;4.98;91.39;100476.34;5068618;28;20044;-72
2022/12/22 10:43:52;;;;;;;117.65;58.03;;;;;;;4.97;90.98;100472.00;5065418;28;20041;-73
2022/12/22 10:46:27;;;;;;;111.78;56.05;;;;;;;4.99;89.86;100468.28;5050658;28;20151;-72
2022/12/22 10:49:06;;;;;;;108.53;55.22;;;;;;;5.00;89.56;100451.38;5070108;28;20036;-71
2022/12/22 10:51:32;;;;;;;117.13;58.45;;;;;;;4.94;90.18;100450.91;5070198;28;20037;-71
2022/12/22 10:53:58;;;;;;;113.95;56.42;;;;;;;5.00;90.21;100453.19;5069784;28;20039;-71
2022/12/22 10:56:26;;;;;;;268.77;121.05;;;;;;;5.05;89.93;100454.59;5069942;28;20028;-71
2022/12/22 10:58:54;;;;;;;157.18;73.55;;;;;;;5.10;90.11;100457.84;5069767;28;20032;-72
2022/12/22 11:01:26;;;;;;;108.85;55.90;;;;;;;5.17;89.66;100463.59;5069758;28;20023;-72
2022/12/22 11:03:51;;;;;;;125.70;58.88;;;;;;;5.13;89.48;100457.66;5068564;28;20377;-71
2022/12/22 11:06:18;;;;;;;119.13;57.88;;;;;;;5.21;90.05;100476.59;5069794;28;20032;-71
2022/12/22 11:08:44;;;;;;;118.07;57.22;;;;;;;5.27;89.79;100465.59;5069814;28;20028;-71
2022/12/22 11:11:17;;;;;;;117.60;58.17;;;;;;;5.19;89.81;100446.59;5069685;28;20043;-72
2022/12/22 11:13:53;;;;;;;112.05;57.60;;;;;;;5.32;90.24;100452.00;5068269;28;20024;-73
2022/12/22 11:16:21;;;;;;;113.43;55.42;;;;;;;5.36;90.18;100453.50;5069657;28;20047;-71
2022/12/22 11:19:18;;;;;;;107.00;54.20;;;;;;;5.42;90.36;100456.59;5069678;28;20385;-71
2022/12/22 11:22:13;;;;;;;109.13;53.88;;;;;;;5.40;90.05;100436.41;5046369;28;20086;-71
2022/12/22 11:24:38;;;;;;;;;;;;;;;5.47;89.33;100446.53;5070353;28;20103;-72
2022/12/22 11:27:16;;;;;;;110.20;53.90;;;;;;;5.52;87.62;100438.28;5068032;28;20020;-72
2022/12/22 11:30:07;;;;;;;109.07;54.15;;;;;;;5.51;88.92;100428.59;5069682;28;20041;-73
2022/12/22 11:32:51;;;;;;;107.38;55.03;;;;;;;5.50;88.82;100425.06;5069411;28;20024;-73
2022/12/22 11:35:21;;;;;;;110.20;56.10;;;;;;;5.52;89.31;100427.63;5069477;28;20107;-72
2022/12/22 11:37:59;;;;;;;113.95;55.05;;;;;;;5.56;89.11;100422.00;5069501;28;20396;-71
2022/12/22 11:40:31;;;;;;;116.72;56.75;;;;;;;5.59;89.21;100420.94;5073101;28;20036;-71
2022/12/22 11:43:15;;;;;;;106.50;54.92;;;;;;;5.58;89.07;100412.09;5072540;28;20097;-73
2022/12/22 11:45:56;;;;;;;109.25;53.75;;;;;;;5.54;89.12;100397.31;5071919;28;20051;-72
2022/12/22 11:48:39;;;;;;;123.78;61.15;;;;;;;5.62;88.78;100413.63;5072876;28;20048;-72
2022/12/22 11:51:11;;;;;;;108.10;56.90;;;;;;;5.60;88.61;100404.88;5072789;28;20040;-71
2022/12/22 11:53:54;;;;;;;101.25;51.08;;;;;;;5.67;88.21;100414.16;5071689;28;20051;-72
2022/12/22 11:56:24;;;;;;;105.72;53.80;;;;;;;5.62;88.77;100407.44;5072841;28;20078;-72
2022/12/22 11:59:22;;;;;;;106.22;51.83;;;;;;;5.59;88.76;100400.53;5072862;28;20048;-72
2022/12/22 12:02:03;;;;;;;100.68;51.53;;;;;;;5.65;88.52;100417.88;5072351;28;20036;-72
2022/12/22 12:05:01;;;;;;;99.57;50.72;;;;;;;5.57;88.92;100383.81;5072855;28;20107;-72
2022/12/22 12:07:28;;;;;;;113.30;51.60;;;;;;;5.73;88.36;100399.59;5072704;28;20085;-72
2022/12/22 12:10:22;;;;;;;105.93;52.47;;;;;;;5.75;88.55;100392.38;5071396;28;20477;-71
2022/12/22 12:12:58;;;;;;;103.50;51.88;;;;;;;5.83;88.59;100398.06;5072537;28;20028;-72
2022/12/22 12:15:44;;;;;;;105.63;52.78;;;;;;;5.86;87.79;100393.38;5072726;28;20481;-71
2022/12/22 12:18:30;;;;;;;105.15;49.65;;;;;;;5.91;87.50;100398.41;5073388;28;20048;-72
2022/12/22 12:21:05;;;;;;;102.50;49.97;;;;;;;5.94;87.11;100398.19;5073985;28;20503;-73
2022/12/22 12:23:58;;;;;;;97.38;50.80;;;;;;;5.94;87.05;100393.72;5074075;28;20030;-73
2022/12/22 12:26:29;;;;;;;104.25;51.72;;;;;;;5.96;86.43;100380.28;5072792;28;20028;-73
2022/12/22 12:29:18;;;;;;;99.95;50.53;;;;;;;5.97;86.52;100388.19;5074155;28;20036;-73
2022/12/22 12:32:24;;;;;;;106.47;51.42;;;;;;;6.00;86.52;100385.31;5073995;28;20068;-73
2022/12/22 12:35:01;;;;;;;97.35;48.83;;;;;;;6.03;86.62;100376.28;5069798;28;20040;-73
2022/12/22 12:37:36;;;;;;;100.35;50.92;;;;;;;5.98;86.85;100367.75;5073830;28;20032;-73
2022/12/22 12:40:23;;;;;;;102.53;50.25;;;;;;;6.06;86.67;100376.06;5073843;28;20024;-74
2022/12/22 12:42:49;;;;;;;100.88;51.30;;;;;;;6.05;86.58;100391.19;5073493;28;20055;-73
2022/12/22 12:45:33;;;;;;;98.93;50.22;;;;;;;6.05;86.19;100395.66;5073699;28;20041;-74
2022/12/22 12:48:20;;;;;;;99.03;50.33;;;;;;;6.05;87.15;100398.31;5072160;28;20027;-72
2022/12/22 12:50:49;;;;;;;105.55;51.50;;;;;;;6.09;87.13;100400.66;5073149;28;20025;-74
2022/12/22 12:53:22;;;;;;;96.45;48.63;;;;;;;6.04;86.41;100384.16;5073616;28;20107;-73
2022/12/22 12:55:51;;;;;;;102.18;50.65;;;;;;;6.08;86.38;100401.63;5073231;28;20036;-74
2022/12/22 12:58:38;;;;;;;102.88;49.30;;;;;;;6.10;86.04;100399.69;5072079;28;20127;-73
2022/12/22 13:01:23;;;;;;;99.90;50.60;;;;;;;5.97;86.03;100390.84;5073436;28;20036;-73
2022/12/22 13:03:48;;;;;;;100.72;50.85;;;;;;;6.04;85.83;100399.28;5073154;28;20035;-72
2022/12/22 13:06:45;;;;;;;104.40;53.10;;;;;;;6.01;86.65;100400.34;5071827;28;20388;-73
2022/12/22 13:09:20;;;;;;;104.68;51.95;;;;;;;6.04;86.56;100416.13;5073417;28;20035;-74
2022/12/22 13:11:45;;;;;;;98.72;51.67;;;;;;;6.03;86.83;100402.91;5073019;28;20106;-75
2022/12/22 13:14:49;;;;;;;102.65;50.90;;;;;;;6.04;87.28;100405.47;5073374;28;20058;-73
2022/12/22 13:17:48;;;;;;;97.95;51.25;;;;;;;6.12;85.74;100404.91;5072757;28;20028;-74
2022/12/22 13:20:19;;;;;;;99.50;51.80;;;;;;;6.06;86.44;100408.84;5073039;28;20723;-73
2022/12/22 13:22:50;;;;;;;107.65;51.72;;;;;;;6.08;86.77;100422.06;5072864;28;20094;-74
2022/12/22 13:25:16;;;;;;;99.88;51.22;;;;;;;6.04;86.31;100404.59;5072956;28;20024;-74
2022/12/22 13:27:42;;;;;;;102.43;52.80;;;;;;;5.98;86.75;100397.03;5073089;28;20036;-74
2022/12/22 13:30:14;;;;;;;100.35;52.65;;;;;;;5.90;86.55;100384.22;5073095;28;20044;-73
2022/12/22 13:32:40;;;;;;;100.93;52.88;;;;;;;5.95;86.80;100383.94;5072910;28;20072;-73
2022/12/22 13:35:18;;;;;;;107.45;52.65;;;;;;;5.94;87.22;100383.06;5072772;28;20037;-72
2022/12/22 13:37:49;;;;;;;108.28;53.97;;;;;;;6.01;87.55;100391.50;5071644;28;20103;-73
2022/12/22 13:40:20;;;;;;;114.13;55.33;;;;;;;6.01;87.46;100386.19;5072632;28;20017;-73
2022/12/22 13:42:53;;;;;;;105.45;55.10;;;;;;;6.00;88.13;100381.81;5072382;28;20047;-72
2022/12/22 13:45:25;;;;;;;112.82;53.67;;;;;;;5.99;88.47;100390.75;5072536;28;20385;-73
2022/12/22 13:47:51;;;;;;;97.32;50.97;;;;;;;5.75;88.56;100355.97;5072139;28;20033;-73
2022/12/22 13:50:33;;;;;;;106.22;53.25;;;;;;;5.98;88.02;100400.56;5070793;28;20028;-73
2022/12/22 13:53:01;;;;;;;102.30;51.60;;;;;;;5.97;88.56;100390.00;5070860;28;20534;-73
2022/12/22 13:55:29;;;;;;;97.53;50.55;;;;;;;5.87;88.42;100370.28;5072429;28;20030;-73
2022/12/22 13:58:04;;;;;;;104.47;52.05;;;;;;;5.95;88.83;100386.59;5072372;28;20028;-73
2022/12/22 14:00:30;;;;;;;105.38;49.88;;;;;;;5.92;88.99;100385.00;5072002;28;20442;-74
2022/12/22 14:02:55;;;;;;;98.05;49.78;;;;;;;5.78;89.06;100361.09;5071748;28;20021;-73
2022/12/22 14:05:21;;;;;;;102.05;50.35;;;;;;;5.94;89.13;100390.22;5072263;28;20028;-74
2022/12/22 14:08:06;;;;;;;103.72;48.75;;;;;;;5.85;89.44;100391.69;5070927;28;20507;-73
2022/12/22 14:10:43;;;;;;;103.72;49.38;;;;;;;5.84;89.12;100402.44;5071929;28;20493;-73
2022/12/22 14:13:15;;;;;;;99.28;50.67;;;;;;;5.85;89.58;100423.63;5071894;28;20027;-74
2022/12/22 14:15:42;;;;;;;100.50;49.30;;;;;;;5.72;89.32;100406.75;5071945;28;20029;-72
2022/12/22 14:18:15;;;;;;;102.10;49.03;;;;;;;5.84;89.33;100413.91;5072020;28;20481;-73
2022/12/22 14:20:42;;;;;;;105.22;51.40;;;;;;;5.83;89.81;100414.00;5072008;28;20419;-73
2022/12/22 14:23:23;;;;;;;100.53;51.28;;;;;;;5.84;89.97;100424.56;5070827;28;20036;-74
2022/12/22 14:25:50;;;;;;;106.55;51.28;;;;;;;5.80;90.30;100415.06;5071711;28;20523;-72
2022/12/22 14:28:25;;;;;;;111.15;52.47;;;;;;;5.74;90.96;100396.81;5072052;28;20024;-73
2022/12/22 14:30:55;;;;;;;102.65;51.05;;;;;;;5.79;91.06;100415.16;5072007;28;20040;-73
2022/12/22 14:33:26;;;;;;;109.15;51.67;;;;;;;5.74;90.64;100428.75;5072037;28;20034;-72
2022/12/22 14:36:34;;;;;;;111.30;53.30;;;;;;;5.73;90.83;100428.84;5071792;28;20035;-73
2022/12/22 14:38:59;;;;;;;105.35;51.10;;;;;;;5.69;90.73;100411.41;5070110;28;20051;-72
2022/12/22 14:41:40;;;;;;;102.50;49.92;;;;;;;5.65;90.53;100412.56;5069724;28;20032;-71
2022/12/22 14:44:21;;;;;;;91.72;49.33;;;;;;;5.69;91.06;100430.03;5069840;28;20512;-72
2022/12/22 14:47:10;;;;;;;102.70;52.15;;;;;;;5.67;90.98;100432.78;5063652;28;20048;-72
2022/12/22 14:49:42;;;;;;;111.38;55.60;;;;;;;5.64;91.96;100421.50;5063245;28;20139;-71
2022/12/22 14:52:36;;;;;;;108.40;54.83;;;;;;;5.49;91.97;100403.88;5070332;28;20848;-72
2022/12/22 14:55:04;;;;;;;114.13;57.80;;;;;;;5.62;92.53;100428.72;5068520;28;20032;-72
2022/12/22 14:57:41;;;;;;;108.93;54.35;;;;;;;5.37;92.62;100399.34;5069888;28;20094;-71
2022/12/22 15:00:28;;;;;;;116.68;56.78;;;;;;;5.31;92.79;100389.97;5069656;28;20025;-71